Time;durP1;ratioP1;P1;durP2;ratioP2;P2;SDS_P1;SDS_P2;PMS_P1;PMS_P2;Temp;Humidity;BMP_temperature;BMP_pressure;BME280_temperature;BME280_humidity;BME280_pressure;Samples;Min_cycle;Max_cycle;Signal;HPM_P1;HPM_P2
2022/04/15 00:00:05;;;;;;;0.50;0.50;;;;;;;11.72;72.56;97412.41;29396;219;63017;-58
2022/04/15 00:00:49;;;;;;;0.50;0.50;;;;;;;11.72;72.20;97411.59;29395;234;64009;-63
2022/04/15 00:01:25;;;;;;;0.50;0.50;;;;;;;11.71;72.32;97415.41;29396;204;63014;-63
2022/04/15 00:01:56;;;;;;;0.50;0.50;;;;;;;11.72;72.53;97417.03;29396;219;63005;-62
2022/04/15 00:02:43;;;;;;;0.50;0.50;;;;;;;11.71;72.66;97409.97;29396;202;63009;-67
2022/04/15 00:03:30;;;;;;;0.50;0.50;;;;;;;11.70;72.61;97413.78;29396;255;63005;-66
2022/04/15 00:04:09;;;;;;;0.50;0.50;;;;;;;11.69;72.86;97412.97;29396;268;63009;-65
2022/04/15 00:04:57;;;;;;;0.50;0.50;;;;;;;11.68;72.69;97410.53;29396;198;63004;-66
2022/04/15 00:05:47;;;;;;;;;;;;;;;;;;;;;
2022/04/15 00:06:28;;;;;;;0.50;0.50;;;;;;;11.67;72.94;97419.81;29418;202;63004;-67
2022/04/15 00:07:01;;;;;;;0.50;0.50;;;;;;;11.66;72.90;97415.47;29417;248;64014;-66
2022/04/15 00:07:35;;;;;;;0.50;0.50;;;;;;;11.65;72.69;97409.22;29396;413;63005;-66
2022/04/15 00:08:17;;;;;;;0.50;0.50;;;;;;;11.66;72.87;97415.47;29396;212;63010;-65
2022/04/15 00:08:53;;;;;;;0.50;0.50;;;;;;;11.67;72.97;97408.94;29396;209;63005;-65
2022/04/15 00:09:30;;;;;;;0.50;0.50;;;;;;;11.66;72.64;97410.03;29395;210;64013;-66
2022/04/15 00:10:04;;;;;;;0.50;0.50;;;;;;;11.68;72.78;97410.53;29396;263;63005;-64
2022/04/15 00:10:40;;;;;;;0.50;0.50;;;;;;;11.68;72.53;97407.81;29396;292;63009;-65
2022/04/15 00:11:16;;;;;;;0.50;0.50;;;;;;;11.69;72.58;97406.72;29396;280;63004;-67
2022/04/15 00:11:53;;;;;;;0.50;0.50;;;;;;;11.70;72.67;97411.06;29396;215;63009;-65
2022/04/15 00:12:30;;;;;;;0.50;0.50;;;;;;;11.70;72.49;97409.16;29395;219;64009;-66
2022/04/15 00:13:12;;;;;;;0.50;0.50;;;;;;;11.73;72.26;97413.22;29396;197;64009;-64
2022/04/15 00:13:47;;;;;;;0.50;0.50;;;;;;;11.74;72.31;97414.84;29397;248;63004;-56
2022/04/15 00:14:18;;;;;;;0.50;0.50;;;;;;;11.73;72.04;97410.50;29397;204;63009;-58
2022/04/15 00:14:49;;;;;;;0.50;0.50;;;;;;;11.75;72.00;97416.47;29396;208;64009;-64
2022/04/15 00:15:20;;;;;;;0.50;0.50;;;;;;;11.74;72.09;97414.84;29397;224;63009;-57
2022/04/15 00:15:51;;;;;;;0.50;0.50;;;;;;;11.75;72.18;97417.28;29397;236;63005;-57
2022/04/15 00:16:23;;;;;;;0.50;0.50;;;;;;;11.75;72.16;97421.91;29397;202;63009;-65
2022/04/15 00:16:54;;;;;;;0.50;0.50;;;;;;;11.75;72.14;97424.63;29397;204;63005;-68
2022/04/15 00:17:25;;;;;;;0.50;0.50;;;;;;;11.75;72.07;97416.47;29397;247;63009;-57
2022/04/15 00:17:57;;;;;;;0.50;0.50;;;;;;;11.77;72.51;97418.94;29397;209;63005;-57
2022/04/15 00:18:29;;;;;;;0.50;0.50;;;;;;;11.75;72.10;97420.00;29397;224;63009;-58
2022/04/15 00:19:01;;;;;;;0.50;0.50;;;;;;;11.77;72.12;97418.94;29397;240;63004;-56
2022/04/15 00:19:35;;;;;;;0.50;0.50;;;;;;;11.77;72.55;97419.75;29396;224;64013;-67
2022/04/15 00:20:07;;;;;;;0.50;0.50;;;;;;;11.78;72.06;97423.25;29397;213;63004;-57
2022/04/15 00:20:38;;;;;;;0.50;0.50;;;;;;;11.78;72.45;97426.78;29397;223;63009;-58
2022/04/15 00:21:10;;;;;;;0.50;0.50;;;;;;;11.78;72.28;97426.78;29397;206;63020;-57
2022/04/15 00:21:41;;;;;;;0.50;0.50;;;;;;;11.79;72.33;97424.84;29396;240;64013;-66
2022/04/15 00:22:14;;;;;;;0.50;0.50;;;;;;;11.79;72.31;97420.22;29397;273;63005;-57
2022/04/15 00:22:45;;;;;;;0.50;0.50;;;;;;;11.78;72.47;97423.25;29397;271;63009;-65
2022/04/15 00:23:18;;;;;;;0.50;0.50;;;;;;;11.79;72.71;97419.41;29397;232;63005;-65
2022/04/15 00:23:54;;;;;;;0.50;0.50;;;;;;;11.80;72.48;97418.31;29397;212;63009;-57
2022/04/15 00:24:25;;;;;;;0.50;0.50;;;;;;;11.79;72.56;97420.22;29396;269;64009;-65
2022/04/15 00:24:57;;;;;;;0.50;0.50;;;;;;;11.79;72.58;97417.50;29397;208;63009;-66
2022/04/15 00:25:28;;;;;;;0.50;0.50;;;;;;;11.80;72.51;97427.28;29397;220;63005;-65
2022/04/15 00:25:59;;;;;;;0.50;0.50;;;;;;;11.80;72.61;97421.84;29395;215;64013;-66
2022/04/15 00:26:31;;;;;;;0.50;0.50;;;;;;;11.79;72.48;97420.22;29397;254;63004;-65
2022/04/15 00:27:04;;;;;;;0.50;0.50;;;;;;;11.79;72.49;97422.94;29396;234;63009;-57
2022/04/15 00:27:35;;;;;;;0.50;0.50;;;;;;;11.80;72.42;97423.75;29395;239;64009;-57
2022/04/15 00:28:06;;;;;;;0.50;0.50;;;;;;;11.80;72.53;97424.56;29397;270;63009;-57
2022/04/15 00:28:37;;;;;;;0.50;0.50;;;;;;;11.80;72.42;97423.75;29396;196;63004;-63
2022/04/15 00:29:10;;;;;;;0.50;0.50;;;;;;;11.79;73.22;97422.94;29397;215;63008;-57
2022/04/15 00:29:42;;;;;;;0.50;0.50;;;;;;;11.78;73.64;97426.00;29396;206;63005;-64
2022/04/15 00:30:13;;;;;;;0.50;0.50;;;;;;;11.75;73.80;97430.06;29396;241;63009;-66
2022/04/15 00:30:45;;;;;;;0.50;0.50;;;;;;;11.74;73.10;97428.44;29396;214;63009;-66
2022/04/15 00:31:16;;;;;;;0.50;0.50;;;;;;;11.73;73.23;97424.09;29396;238;63009;-57
2022/04/15 00:31:47;;;;;;;0.50;0.50;;;;;;;11.73;73.25;97429.53;29396;263;63005;-57
2022/04/15 00:32:18;;;;;;;0.50;0.50;;;;;;;11.72;73.59;97430.63;29396;214;63009;-57
2022/04/15 00:32:49;;;;;;;0.50;0.50;;;;;;;11.71;73.80;97431.72;29395;207;64009;-66
2022/04/15 00:33:22;;;;;;;0.50;0.50;;;;;;;11.69;73.92;97432.00;29396;204;63009;-65
2022/04/15 00:33:53;;;;;;;0.50;0.50;;;;;;;11.67;74.02;97436.91;29396;235;63004;-67
2022/04/15 00:34:24;;;;;;;0.50;0.50;;;;;;;11.67;73.82;97430.66;29396;206;63009;-57
2022/04/15 00:34:56;;;;;;;0.50;0.50;;;;;;;11.67;73.92;97430.66;29396;218;63004;-65
2022/04/15 00:35:27;;;;;;;0.50;0.50;;;;;;;11.67;73.73;97434.19;29395;249;64013;-57
2022/04/15 00:36:00;;;;;;;0.50;0.50;;;;;;;11.66;73.96;97434.50;29396;248;63004;-58
2022/04/15 00:36:33;;;;;;;0.40;0.40;;;;;;;11.62;74.20;97428.81;29396;430;63008;-66
2022/04/15 00:37:05;;;;;;;0.50;0.50;;;;;;;11.60;74.49;97430.19;29396;306;63005;-57
2022/04/15 00:37:37;;;;;;;0.50;0.50;;;;;;;11.59;74.42;97434.00;29396;259;63013;-66
2022/04/15 00:38:09;;;;;;;0.50;0.50;;;;;;;11.57;74.43;97433.47;29396;243;63005;-58
2022/04/15 00:38:40;;;;;;;0.50;0.50;;;;;;;11.55;74.46;97432.94;29396;278;63009;-58
2022/04/15 00:39:11;;;;;;;0.50;0.50;;;;;;;11.56;74.52;97429.12;29396;227;63005;-58
2022/04/15 00:39:45;;;;;;;0.50;0.50;;;;;;;11.54;74.23;97421.25;29396;221;63009;-57
2022/04/15 00:40:17;;;;;;;0.45;0.45;;;;;;;11.55;74.38;97419.34;29396;214;63005;-57
2022/04/15 00:40:48;;;;;;;0.50;0.50;;;;;;;11.55;74.32;97422.06;29395;234;64013;-65
2022/04/15 00:41:19;;;;;;;0.50;0.50;;;;;;;11.56;74.33;97426.41;29396;247;63004;-65
2022/04/15 00:41:51;;;;;;;0.50;0.50;;;;;;;11.52;74.37;97417.22;29396;203;63009;-60
2022/04/15 00:42:22;;;;;;;0.50;0.50;;;;;;;11.55;74.24;97422.88;29396;198;63007;-57
2022/04/15 00:42:54;;;;;;;0.50;0.50;;;;;;;11.54;74.09;97421.25;29396;258;63009;-66
2022/04/15 00:43:25;;;;;;;0.40;0.40;;;;;;;11.55;74.33;97422.06;29396;250;63004;-58
2022/04/15 00:43:58;;;;;;;0.50;0.50;;;;;;;11.54;74.01;97425.87;29396;224;63008;-58
2022/04/15 00:44:29;;;;;;;0.50;0.50;;;;;;;11.53;74.15;97425.09;29396;224;63005;-65
2022/04/15 00:45:02;;;;;;;0.50;0.50;;;;;;;11.54;74.21;97425.87;29396;239;63018;-65
2022/04/15 00:45:33;;;;;;;0.50;0.50;;;;;;;11.53;74.54;97421.56;29396;247;63005;-58
2022/04/15 00:46:07;;;;;;;0.50;0.50;;;;;;;11.51;74.87;97426.47;29395;203;64014;-58
2022/04/15 00:46:38;;;;;;;0.50;0.50;;;;;;;11.50;74.45;97424.84;29396;211;63005;-58
2022/04/15 00:47:22;;;;;;;0.50;0.50;;;;;;;11.49;74.33;97423.22;29396;244;63009;-57
2022/04/15 00:47:57;;;;;;;0.50;0.50;;;;;;;11.48;75.33;97422.41;29396;205;63004;-66
2022/04/15 00:48:29;;;;;;;0.50;0.50;;;;;;;11.46;75.25;97429.22;29396;234;63009;-66
2022/04/15 00:49:01;;;;;;;0.50;0.50;;;;;;;11.46;75.06;97426.50;29395;272;64009;-66
2022/04/15 00:49:32;;;;;;;0.50;0.50;;;;;;;11.45;74.71;97428.41;29396;229;63009;-57
2022/04/15 00:50:05;;;;;;;0.50;0.50;;;;;;;11.46;74.78;97429.22;29396;231;63004;-65
2022/04/15 00:50:36;;;;;;;0.50;0.50;;;;;;;11.47;74.60;97419.97;29396;214;63023;-57
2022/04/15 00:51:08;;;;;;;0.40;0.40;;;;;;;11.47;74.60;97428.12;29396;197;63004;-58
2022/04/15 00:51:41;;;;;;;0.50;0.50;;;;;;;11.47;74.49;97430.84;29395;257;64013;-58
2022/04/15 00:52:14;;;;;;;0.50;0.50;;;;;;;11.44;74.53;97426.78;29395;263;64022;-58
2022/04/15 00:52:47;;;;;;;0.50;0.50;;;;;;;11.44;74.43;97426.78;29396;277;63009;-58
2022/04/15 00:53:22;;;;;;;0.50;0.50;;;;;;;11.43;74.18;97431.41;29395;214;64009;-58
2022/04/15 00:53:58;;;;;;;0.50;0.50;;;;;;;11.45;74.32;97419.44;29396;214;63009;-58
2022/04/15 00:54:30;;;;;;;0.50;0.50;;;;;;;11.45;74.97;97427.59;29396;222;63005;-57
2022/04/15 00:55:06;;;;;;;0.50;0.50;;;;;;;11.41;74.67;97430.91;29396;216;63009;-57
2022/04/15 00:55:40;;;;;;;0.50;0.50;;;;;;;11.41;74.64;97427.38;29396;204;63004;-59
2022/04/15 00:56:12;;;;;;;0.50;0.50;;;;;;;11.41;74.47;97430.09;29396;231;63009;-58
2022/04/15 00:56:45;;;;;;;0.50;0.50;;;;;;;11.43;74.12;97430.63;29396;260;63004;-57
2022/04/15 00:57:22;;;;;;;0.50;0.50;;;;;;;11.44;74.12;97432.22;29395;279;64013;-64
2022/04/15 00:58:00;;;;;;;0.50;0.50;;;;;;;11.46;74.04;97430.03;29396;234;63004;-67
2022/04/15 00:58:35;;;;;;;0.40;0.40;;;;;;;11.47;73.80;97430.84;29396;198;63008;-57
2022/04/15 00:59:08;;;;;;;0.50;0.50;;;;;;;11.48;73.83;97432.47;29396;203;63005;-65
2022/04/15 00:59:40;;;;;;;0.50;0.50;;;;;;;11.49;73.97;97434.09;29396;221;63009;-57
2022/04/15 01:00:13;;;;;;;0.50;0.50;;;;;;;11.49;73.97;97429.47;29396;200;63005;-57
2022/04/15 01:00:46;;;;;;;0.50;0.50;;;;;;;11.51;73.59;97437.31;29395;206;64013;-57
2022/04/15 01:01:18;;;;;;;0.50;0.50;;;;;;;11.52;73.89;97428.09;29396;197;63005;-58
2022/04/15 01:01:50;;;;;;;0.50;0.50;;;;;;;11.52;73.69;97433.53;29396;233;63009;-58
2022/04/15 01:02:24;;;;;;;0.50;0.50;;;;;;;11.51;73.69;97427.28;29396;198;63005;-58
2022/04/15 01:03:00;;;;;;;0.50;0.50;;;;;;;11.54;74.12;97423.19;29396;202;63009;-65
2022/04/15 01:03:32;;;;;;;0.50;0.50;;;;;;;11.55;73.66;97430.22;29395;213;64009;-58
2022/04/15 01:04:07;;;;;;;0.50;0.50;;;;;;;11.55;73.53;97430.22;29396;261;63009;-57
2022/04/15 01:04:43;;;;;;;0.50;0.50;;;;;;;11.57;73.69;97428.03;29396;202;63004;-57
2022/04/15 01:05:15;;;;;;;0.50;0.50;;;;;;;11.57;73.92;97431.56;29395;356;64009;-58
2022/04/15 01:05:49;;;;;;;0.50;0.50;;;;;;;11.58;74.02;97425.03;29396;204;63004;-64
2022/04/15 01:06:23;;;;;;;0.50;0.50;;;;;;;11.58;73.98;97427.75;29396;252;63009;-58
2022/04/15 01:06:55;;;;;;;0.50;0.50;;;;;;;11.57;74.91;97425.31;29396;228;63005;-66
2022/04/15 01:07:29;;;;;;;0.50;0.50;;;;;;;11.56;75.57;97429.12;29395;245;64014;-57
2022/04/15 01:08:03;;;;;;;0.50;0.50;;;;;;;11.54;74.98;97425.87;29396;331;63005;-58
2022/04/15 01:08:39;;;;;;;0.50;0.50;;;;;;;11.55;74.83;97432.94;29396;209;63009;-64
2022/04/15 01:09:12;;;;;;;0.50;0.50;;;;;;;11.55;74.85;97427.50;29396;243;63005;-58
2022/04/15 01:09:50;;;;;;;0.50;0.50;;;;;;;11.55;75.00;97441.09;29395;209;64013;-57
2022/04/15 01:10:23;;;;;;;0.50;0.50;;;;;;;11.54;75.13;97436.75;29396;273;63005;-65
2022/04/15 01:10:58;;;;;;;0.50;0.50;;;;;;;11.52;75.64;97428.09;29396;247;63009;-57
2022/04/15 01:11:33;;;;;;;0.50;0.50;;;;;;;11.51;75.24;97434.63;29396;229;63015;-65
2022/04/15 01:12:09;;;;;;;0.50;0.50;;;;;;;11.50;74.74;97428.38;29396;198;63009;-57
2022/04/15 01:12:44;;;;;;;0.50;0.50;;;;;;;11.50;74.87;97430.28;29396;249;63017;-58
2022/04/15 01:13:17;;;;;;;0.50;0.50;;;;;;;11.51;75.03;97430.00;29396;207;63008;-64
2022/04/15 01:13:50;;;;;;;0.50;0.50;;;;;;;11.50;75.51;97435.72;29396;214;63004;-58
2022/04/15 01:14:24;;;;;;;0.40;0.40;;;;;;;11.48;75.75;97433.28;29396;223;63009;-58
2022/04/15 01:15:05;;;;;;;0.40;0.40;;;;;;;11.43;76.50;97425.19;29395;216;64009;-58
2022/04/15 01:15:37;;;;;;;0.50;0.50;;;;;;;11.43;76.58;97435.25;29418;215;63009;-57
2022/04/15 01:16:09;;;;;;;0.50;0.50;;;;;;;11.39;76.84;97432.28;29397;199;63005;-65
2022/04/15 01:16:43;;;;;;;0.50;0.50;;;;;;;11.36;77.24;97433.66;29397;247;63009;-57
2022/04/15 01:17:15;;;;;;;0.50;0.50;;;;;;;11.35;76.60;97432.03;29397;241;63005;-65
2022/04/15 01:17:46;;;;;;;0.50;0.50;;;;;;;11.35;76.60;97429.31;29397;246;63009;-57
2022/04/15 01:18:17;;;;;;;0.50;0.50;;;;;;;11.37;76.27;97424.41;29397;226;63004;-57
2022/04/15 01:18:48;;;;;;;0.50;0.50;;;;;;;11.37;76.46;97429.84;29394;203;64013;-58
2022/04/15 01:19:20;;;;;;;0.40;0.40;;;;;;;11.39;76.09;97427.66;29395;202;63004;-57
2022/04/15 01:19:51;;;;;;;0.50;0.50;;;;;;;11.39;75.77;97430.38;29395;255;63009;-57
2022/04/15 01:20:22;;;;;;;0.50;0.50;;;;;;;11.42;75.87;97434.44;29395;232;63004;-64
2022/04/15 01:20:54;;;;;;;0.50;0.50;;;;;;;11.42;75.67;97434.44;29395;196;63008;-58
2022/04/15 01:21:31;;;;;;;0.50;0.50;;;;;;;11.43;75.91;97424.37;29395;210;63005;-57
2022/04/15 01:22:08;;;;;;;0.50;0.50;;;;;;;11.45;75.81;97427.59;29395;275;63009;-57
2022/04/15 01:22:47;;;;;;;0.50;0.50;;;;;;;11.45;75.67;97433.03;29395;217;63005;-65
2022/04/15 01:23:21;;;;;;;0.50;0.50;;;;;;;11.46;75.69;97432.75;29479;249;125009;-58
2022/04/15 01:23:54;;;;;;;0.50;0.50;;;;;;;11.47;75.92;97436.28;29393;257;64009;-56
2022/04/15 01:24:25;;;;;;;0.50;0.50;;;;;;;11.46;76.13;97429.22;29395;276;63009;-57
2022/04/15 01:24:56;;;;;;;0.50;0.50;;;;;;;11.47;76.00;97430.84;29395;212;63016;-57
2022/04/15 01:25:27;;;;;;;0.50;0.50;;;;;;;11.47;76.24;97425.41;29395;216;63009;-57
2022/04/15 01:25:58;;;;;;;0.50;0.50;;;;;;;11.46;76.43;97429.22;29395;212;63004;-57
2022/04/15 01:26:31;;;;;;;0.50;0.50;;;;;;;11.45;76.05;97427.59;29395;197;63009;-57
2022/04/15 01:27:03;;;;;;;0.50;0.50;;;;;;;11.45;76.14;97427.59;29395;197;63004;-57
2022/04/15 01:27:37;;;;;;;0.50;0.50;;;;;;;11.46;75.86;97427.31;29395;221;63009;-57
2022/04/15 01:28:09;;;;;;;0.50;0.50;;;;;;;11.46;75.87;97429.22;29395;205;63004;-58
2022/04/15 01:28:40;;;;;;;0.50;0.50;;;;;;;11.47;75.81;97422.69;29393;268;64013;-57
2022/04/15 01:29:12;;;;;;;0.50;0.50;;;;;;;11.49;75.68;97431.38;29395;363;63005;-57
2022/04/15 01:29:43;;;;;;;0.50;0.50;;;;;;;11.50;75.55;97433.00;29395;217;63009;-57
2022/04/15 01:30:20;;;;;;;0.50;0.50;;;;;;;11.50;75.78;97425.66;29395;219;63005;-57
2022/04/15 01:30:51;;;;;;;0.50;0.50;;;;;;;11.50;75.43;97428.38;29395;243;63009;-59
2022/04/15 01:31:25;;;;;;;0.50;0.50;;;;;;;11.51;75.55;97426.47;29395;271;63005;-58
2022/04/15 01:31:56;;;;;;;0.50;0.50;;;;;;;11.51;75.53;97438.13;29395;236;63009;-57
2022/04/15 01:32:27;;;;;;;0.50;0.50;;;;;;;11.53;75.67;97427.00;29395;217;63005;-65
2022/04/15 01:32:59;;;;;;;0.50;0.50;;;;;;;11.52;75.75;97428.91;29395;223;63009;-57
2022/04/15 01:33:30;;;;;;;0.50;0.50;;;;;;;11.51;76.18;97429.19;29395;205;63004;-57
2022/04/15 01:34:01;;;;;;;0.45;0.45;;;;;;;11.51;75.69;97437.31;29393;212;64013;-65
2022/04/15 01:34:32;;;;;;;0.50;0.50;;;;;;;11.50;75.64;97431.09;29395;222;63004;-58
2022/04/15 01:35:06;;;;;;;0.50;0.50;;;;;;;11.51;76.37;97429.19;29395;220;63009;-56
2022/04/15 01:35:37;;;;;;;0.50;0.50;;;;;;;11.49;77.23;97431.38;29395;270;63004;-58
2022/04/15 01:36:08;;;;;;;0.50;0.50;;;;;;;11.45;76.96;97433.03;29395;254;63019;-57
2022/04/15 01:36:39;;;;;;;0.50;0.50;;;;;;;11.45;76.88;97433.03;29395;235;63005;-58
2022/04/15 01:37:14;;;;;;;0.50;0.50;;;;;;;11.42;76.64;97434.44;29395;246;63015;-65
2022/04/15 01:37:47;;;;;;;0.50;0.50;;;;;;;11.39;76.84;97430.38;29395;202;63005;-57
2022/04/15 01:38:20;;;;;;;0.50;0.50;;;;;;;11.39;76.68;97435.81;29395;219;63009;-57
2022/04/15 01:38:56;;;;;;;0.50;0.50;;;;;;;11.39;76.39;97435.81;29393;208;64009;-57
2022/04/15 01:39:28;;;;;;;0.50;0.50;;;;;;;11.41;76.30;97438.25;29395;272;63009;-57
2022/04/15 01:40:00;;;;;;;0.50;0.50;;;;;;;11.40;76.40;97434.72;29395;233;63005;-57
2022/04/15 01:40:32;;;;;;;0.50;0.50;;;;;;;11.43;75.95;97436.06;29393;199;64013;-58
2022/04/15 01:41:03;;;;;;;0.50;0.50;;;;;;;11.43;76.37;97439.56;29395;243;63004;-57
2022/04/15 01:41:38;;;;;;;0.50;0.50;;;;;;;11.43;76.30;97445.00;29395;231;63009;-58
2022/04/15 01:42:12;;;;;;;0.50;0.50;;;;;;;11.41;77.27;97436.34;29395;213;63004;-57
2022/04/15 01:42:45;;;;;;;0.50;0.50;;;;;;;11.39;77.22;97433.09;29395;236;63008;-57
2022/04/15 01:43:16;;;;;;;0.50;0.50;;;;;;;11.38;76.95;97441.53;29395;215;63004;-57
2022/04/15 01:43:49;;;;;;;0.50;0.50;;;;;;;11.39;76.79;97435.81;29395;198;63008;-58
2022/04/15 01:44:20;;;;;;;0.50;0.50;;;;;;;11.40;76.82;97436.62;29395;224;63005;-56
2022/04/15 01:44:51;;;;;;;0.50;0.50;;;;;;;11.41;76.36;97439.06;29395;275;63008;-57
2022/04/15 01:45:23;;;;;;;0.50;0.50;;;;;;;11.41;76.43;97436.34;29393;241;64009;-59
2022/04/15 01:45:54;;;;;;;0.50;0.50;;;;;;;11.43;76.34;97435.25;29393;196;64013;-57
2022/04/15 01:46:25;;;;;;;0.50;0.50;;;;;;;11.43;76.36;97435.25;29395;246;63009;-57
2022/04/15 01:46:57;;;;;;;0.50;0.50;;;;;;;11.43;76.07;97436.84;29395;263;63009;-58
2022/04/15 01:47:28;;;;;;;0.50;0.50;;;;;;;11.43;76.12;97431.41;29395;275;63004;-58
2022/04/15 01:48:00;;;;;;;0.50;0.50;;;;;;;11.44;76.34;97432.22;29395;221;63009;-57
2022/04/15 01:48:31;;;;;;;0.50;0.50;;;;;;;11.44;76.28;97432.22;29393;229;64009;-58
2022/04/15 01:49:02;;;;;;;0.50;0.50;;;;;;;11.45;76.15;97430.31;29395;198;63009;-58
2022/04/15 01:49:33;;;;;;;0.50;0.50;;;;;;;11.46;76.47;97434.66;29395;261;63004;-58
2022/04/15 01:50:07;;;;;;;0.50;0.50;;;;;;;11.46;76.40;97437.38;29395;248;63008;-58
2022/04/15 01:50:39;;;;;;;0.50;0.50;;;;;;;11.46;76.16;97440.91;29395;252;63004;-58
2022/04/15 01:51:10;;;;;;;0.50;0.50;;;;;;;11.46;76.01;97434.66;29395;236;63009;-59
2022/04/15 01:51:41;;;;;;;0.50;0.50;;;;;;;11.46;76.48;97435.47;29395;203;63005;-58
2022/04/15 01:52:13;;;;;;;0.50;0.50;;;;;;;11.46;77.27;97434.66;29395;240;63009;-58
2022/04/15 01:52:44;;;;;;;0.50;0.50;;;;;;;11.45;76.95;97439.28;29395;202;63005;-58
2022/04/15 01:53:15;;;;;;;0.50;0.50;;;;;;;11.43;77.20;97445.00;29395;236;63009;-58
2022/04/15 01:53:49;;;;;;;0.50;0.50;;;;;;;11.41;76.70;97444.50;29394;202;64009;-58
2022/04/15 01:54:20;;;;;;;0.50;0.50;;;;;;;11.41;76.47;97438.25;29395;249;63009;-57
2022/04/15 01:54:51;;;;;;;0.50;0.50;;;;;;;11.41;76.37;97438.25;29395;219;63005;-57
2022/04/15 01:55:22;;;;;;;0.50;0.50;;;;;;;11.43;76.29;97445.00;29395;259;63009;-58
2022/04/15 01:55:53;;;;;;;0.50;0.50;;;;;;;11.44;76.54;97443.09;29395;278;63004;-58
2022/04/15 01:56:25;;;;;;;0.50;0.50;;;;;;;11.43;76.78;97442.28;29394;273;64013;-58
2022/04/15 01:56:57;;;;;;;0.50;0.50;;;;;;;11.43;76.48;97440.69;29395;228;63004;-57
2022/04/15 01:57:30;;;;;;;0.50;0.50;;;;;;;11.41;76.54;97441.78;29395;275;63013;-57
2022/04/15 01:58:01;;;;;;;0.50;0.50;;;;;;;11.41;76.64;97444.50;29395;197;63004;-58
2022/04/15 01:58:33;;;;;;;0.50;0.50;;;;;;;11.43;76.28;97443.41;29395;252;63009;-57
2022/04/15 01:59:09;;;;;;;0.50;0.50;;;;;;;11.43;76.25;97439.56;29395;199;63005;-58
2022/04/15 01:59:41;;;;;;;0.50;0.50;;;;;;;11.43;77.17;97440.69;29395;221;63009;-57
2022/04/15 02:00:13;;;;;;;0.50;0.50;;;;;;;11.40;77.12;97442.88;29394;210;64009;-56
2022/04/15 02:00:44;;;;;;;0.50;0.50;;;;;;;11.40;76.65;97442.88;29395;206;63009;-58
2022/04/15 02:01:15;;;;;;;0.40;0.40;;;;;;;11.42;76.63;97439.87;29394;222;64009;-57
2022/04/15 02:01:48;;;;;;;0.47;0.47;;;;;;;11.40;77.28;97440.16;29394;226;64013;-58
2022/04/15 02:02:20;;;;;;;0.50;0.50;;;;;;;11.38;77.06;97442.34;29395;206;63005;-58
2022/04/15 02:02:51;;;;;;;0.50;0.50;;;;;;;11.39;76.69;97441.25;29395;242;63009;-57
2022/04/15 02:03:22;;;;;;;0.50;0.50;;;;;;;11.39;76.82;97441.25;29395;202;63009;-65
2022/04/15 02:03:53;;;;;;;0.50;0.50;;;;;;;11.40;76.79;97442.88;29395;212;63009;-59
2022/04/15 02:04:26;;;;;;;0.50;0.50;;;;;;;11.39;76.75;97441.25;29395;210;63004;-57
2022/04/15 02:04:58;;;;;;;0.50;0.50;;;;;;;11.39;76.88;97435.00;29395;273;63020;-57
2022/04/15 02:05:29;;;;;;;0.50;0.50;;;;;;;11.39;76.78;97435.81;29395;220;63004;-57
2022/04/15 02:06:00;;;;;;;0.50;0.50;;;;;;;11.38;76.75;97439.63;29394;355;64014;-59
2022/04/15 02:06:32;;;;;;;0.50;0.50;;;;;;;11.39;76.62;97441.25;29394;248;64009;-57
2022/04/15 02:07:03;;;;;;;0.50;0.50;;;;;;;11.38;76.70;97439.63;29395;218;63009;-57
2022/04/15 02:07:35;;;;;;;0.50;0.50;;;;;;;11.38;76.77;97445.06;29395;278;63005;-57
2022/04/15 02:08:07;;;;;;;0.50;0.50;;;;;;;11.37;76.88;97438.00;29394;245;64013;-65
2022/04/15 02:08:38;;;;;;;0.50;0.50;;;;;;;11.38;76.79;97439.63;29395;197;63005;-58
2022/04/15 02:09:09;;;;;;;0.50;0.50;;;;;;;11.38;76.59;97438.81;29395;230;63009;-58
2022/04/15 02:09:41;;;;;;;0.50;0.50;;;;;;;11.37;77.04;97440.72;29395;205;63005;-59
2022/04/15 02:10:12;;;;;;;0.50;0.50;;;;;;;11.36;77.08;97436.38;29395;233;63009;-58
2022/04/15 02:10:43;;;;;;;0.50;0.50;;;;;;;11.36;77.15;97441.81;29395;202;63004;-58
2022/04/15 02:11:14;;;;;;;0.50;0.50;;;;;;;11.35;77.60;97445.63;29394;264;64009;-58
2022/04/15 02:11:46;;;;;;;0.50;0.50;;;;;;;11.31;77.76;97441.84;29395;211;63004;-57
2022/04/15 02:12:18;;;;;;;0.50;0.50;;;;;;;11.30;77.23;97440.22;29395;205;63009;-59
2022/04/15 02:12:49;;;;;;;0.50;0.50;;;;;;;11.30;77.41;97442.94;29395;245;63004;-57
2022/04/15 02:13:20;;;;;;;0.50;0.50;;;;;;;11.30;77.37;97442.94;29394;197;64013;-66
2022/04/15 02:13:51;;;;;;;0.40;0.40;;;;;;;11.30;77.50;97444.84;29395;204;63005;-59
2022/04/15 02:14:22;;;;;;;0.50;0.50;;;;;;;11.29;77.74;97441.31;29395;209;63014;-59
2022/04/15 02:14:53;;;;;;;0.50;0.50;;;;;;;11.27;77.81;97443.50;29395;213;63005;-58
2022/04/15 02:15:25;;;;;;;0.50;0.50;;;;;;;11.25;77.67;97445.69;29395;215;63009;-58
2022/04/15 02:15:56;;;;;;;0.50;0.50;;;;;;;11.26;77.78;97452.75;29394;252;64005;-58
2022/04/15 02:16:27;;;;;;;0.50;0.50;;;;;;;11.24;77.63;97444.06;29395;220;63009;-59
2022/04/15 02:16:59;;;;;;;0.50;0.50;;;;;;;11.24;77.77;97452.22;29395;231;63005;-58
2022/04/15 02:17:30;;;;;;;0.50;0.50;;;;;;;11.23;77.87;97447.87;29395;230;63009;-58
2022/04/15 02:18:02;;;;;;;0.50;0.50;;;;;;;11.21;78.02;97447.34;29395;206;63004;-57
2022/04/15 02:18:34;;;;;;;0.50;0.50;;;;;;;11.21;77.81;97444.62;29394;222;64025;-66
2022/04/15 02:19:05;;;;;;;0.50;0.50;;;;;;;11.20;77.71;97448.44;29395;243;63004;-58
2022/04/15 02:19:37;;;;;;;0.50;0.50;;;;;;;11.20;77.79;97450.34;29395;215;63009;-66
2022/04/15 02:20:11;;;;;;;0.50;0.50;;;;;;;11.20;77.71;97443.00;29395;228;63009;-58
2022/04/15 02:20:46;;;;;;;0.50;0.50;;;;;;;11.20;77.53;97443.00;29395;294;63008;-56
2022/04/15 02:21:19;;;;;;;0.50;0.50;;;;;;;11.20;77.65;97447.63;29395;200;63005;-56
2022/04/15 02:21:50;;;;;;;0.50;0.50;;;;;;;11.19;77.85;97446.81;29395;258;63009;-56
2022/04/15 02:22:21;;;;;;;0.50;0.50;;;;;;;11.19;77.57;97446.81;29395;208;63005;-57
2022/04/15 02:22:54;;;;;;;0.50;0.50;;;;;;;11.19;77.30;97437.88;29395;221;63009;-56
2022/04/15 02:23:25;;;;;;;0.50;0.50;;;;;;;11.19;77.20;97452.25;29394;211;64009;-56
2022/04/15 02:23:57;;;;;;;0.50;0.50;;;;;;;11.19;77.12;97446.81;29395;238;63009;-56
2022/04/15 02:24:29;;;;;;;0.50;0.50;;;;;;;11.19;77.43;97446.81;29395;246;63005;-58
2022/04/15 02:25:00;;;;;;;0.50;0.50;;;;;;;11.20;77.21;97448.44;29395;204;63009;-58
2022/04/15 02:25:32;;;;;;;0.50;0.50;;;;;;;11.20;77.28;97448.44;29395;196;63004;-58
2022/04/15 02:26:03;;;;;;;0.50;0.50;;;;;;;11.19;77.44;97446.81;29395;197;63009;-57
2022/04/15 02:26:34;;;;;;;0.50;0.50;;;;;;;11.21;77.37;97450.06;29395;235;63004;-58
2022/04/15 02:27:07;;;;;;;0.50;0.50;;;;;;;11.20;77.09;97453.88;29395;280;63009;-57
2022/04/15 02:27:38;;;;;;;0.50;0.50;;;;;;;11.21;77.39;97450.06;29395;218;63000;-58
2022/04/15 02:28:09;;;;;;;0.50;0.50;;;;;;;11.21;77.09;97450.06;29394;208;64013;-58
2022/04/15 02:28:40;;;;;;;0.50;0.50;;;;;;;11.21;77.39;97455.50;29395;229;63005;-56
2022/04/15 02:29:11;;;;;;;0.50;0.50;;;;;;;11.21;76.90;97450.06;29395;209;63009;-59
2022/04/15 02:29:42;;;;;;;0.50;0.50;;;;;;;11.20;77.25;97453.88;29395;240;63005;-57
2022/04/15 02:30:13;;;;;;;0.50;0.50;;;;;;;11.22;77.14;97451.69;29395;200;63009;-58
2022/04/15 02:30:47;;;;;;;0.50;0.50;;;;;;;11.22;77.08;97448.16;29395;202;63012;-58
2022/04/15 02:31:22;;;;;;;1.30;1.30;;;;;;;11.22;77.03;97450.88;29395;222;63009;-58
2022/04/15 02:31:55;;;;;;;0.50;0.50;;;;;;;11.22;77.05;97448.97;29395;220;63005;-58
2022/04/15 02:32:29;;;;;;;0.50;0.50;;;;;;;11.23;76.92;97452.50;29395;203;63009;-57
2022/04/15 02:33:01;;;;;;;0.50;0.50;;;;;;;11.22;77.10;97451.69;29394;238;64009;-58
2022/04/15 02:33:34;;;;;;;0.50;0.50;;;;;;;11.24;76.79;97454.13;29395;240;63009;-58
2022/04/15 02:34:06;;;;;;;0.50;0.50;;;;;;;11.22;77.19;97451.69;29395;251;63004;-57
2022/04/15 02:34:37;;;;;;;0.50;0.50;;;;;;;11.24;76.78;97459.56;29395;210;63009;-58
2022/04/15 02:35:10;;;;;;;0.50;0.50;;;;;;;11.24;77.02;97449.50;29395;203;63004;-57
2022/04/15 02:35:41;;;;;;;0.50;0.50;;;;;;;11.24;76.98;97454.94;29395;231;63008;-58
2022/04/15 02:36:13;;;;;;;0.50;0.50;;;;;;;11.23;77.00;97447.87;29395;218;63014;-58
2022/04/15 02:36:48;;;;;;;0.50;0.50;;;;;;;11.23;76.99;97456.03;29395;235;63009;-58